createdAt,value
2018-08-13T00:01:35.029Z,43.40
2018-08-13T00:04:03.240Z,43.50
2018-08-13T00:06:31.447Z,43.60
2018-08-13T00:08:59.663Z,43.70
2018-08-13T00:11:28.540Z,43.70
2018-08-13T00:13:56.741Z,43.80
2018-08-13T00:16:24.987Z,43.80
2018-08-13T00:18:53.196Z,43.90
2018-08-13T00:21:21.408Z,44.00
2018-08-13T00:23:49.654Z,44.10
2018-08-13T00:26:17.870Z,44.30
2018-08-13T00:28:46.057Z,44.30
2018-08-13T00:31:14.252Z,44.60
2018-08-13T00:33:42.431Z,44.60
2018-08-13T00:36:10.636Z,44.70
2018-08-13T00:38:38.827Z,44.60
2018-08-13T00:41:07.077Z,44.80
2018-08-13T00:43:35.251Z,44.80
2018-08-13T00:46:03.437Z,44.70
2018-08-13T00:48:31.708Z,45.00
2018-08-13T00:50:59.965Z,45.10
2018-08-13T00:53:28.161Z,45.20
2018-08-13T00:55:56.360Z,45.20
2018-08-13T00:58:24.555Z,45.30
2018-08-13T01:00:52.782Z,45.30
2018-08-13T01:03:21.000Z,45.50
2018-08-13T01:05:49.211Z,45.60
2018-08-13T01:08:17.409Z,45.70
2018-08-13T01:10:45.609Z,45.70
2018-08-13T01:13:13.837Z,45.80
2018-08-13T01:15:42.041Z,45.70
2018-08-13T01:18:10.247Z,45.70
2018-08-13T01:20:38.456Z,45.70
2018-08-13T01:23:06.735Z,45.80
2018-08-13T01:25:34.929Z,45.80
2018-08-13T01:28:03.157Z,45.90
2018-08-13T01:30:31.382Z,46.00
2018-08-13T01:32:59.558Z,46.00
2018-08-13T01:35:27.781Z,46.10
2018-08-13T01:37:55.993Z,46.20
2018-08-13T01:40:24.207Z,46.30
2018-08-13T01:42:52.409Z,46.40
2018-08-13T01:45:20.617Z,46.40
2018-08-13T01:47:48.884Z,46.40
2018-08-13T01:50:17.084Z,46.70
2018-08-13T01:52:45.287Z,46.60
2018-08-13T01:55:13.490Z,46.70
2018-08-13T01:57:41.672Z,46.70
2018-08-13T02:00:12.951Z,46.80
2018-08-13T02:02:41.153Z,46.90
2018-08-13T02:05:09.370Z,47.10
2018-08-13T02:07:37.972Z,47.20
2018-08-13T02:10:07.240Z,47.20
2018-08-13T02:12:35.480Z,47.40
2018-08-13T02:15:04.584Z,47.30
2018-08-13T02:17:32.779Z,47.40
2018-08-13T02:20:00.993Z,47.50
2018-08-13T02:22:29.196Z,47.70
2018-08-13T02:24:57.391Z,47.80
2018-08-13T02:27:25.719Z,47.80
2018-08-13T02:29:53.901Z,48.00
2018-08-13T02:32:22.097Z,48.10
2018-08-13T02:34:50.290Z,48.20
2018-08-13T02:37:18.477Z,48.20
2018-08-13T02:39:46.703Z,48.30
2018-08-13T02:42:14.915Z,48.50
2018-08-13T02:44:43.104Z,48.50
2018-08-13T02:47:11.304Z,48.50
2018-08-13T02:49:39.516Z,48.60
2018-08-13T02:52:07.742Z,48.70
2018-08-13T02:54:35.974Z,48.70
2018-08-13T02:57:04.184Z,48.70
2018-08-13T02:59:32.385Z,48.90
2018-08-13T03:02:00.581Z,49.50
2018-08-13T03:04:28.898Z,49.10
2018-08-13T03:06:57.049Z,49.10
2018-08-13T03:09:25.252Z,49.10
2018-08-13T03:11:53.428Z,49.20
2018-08-13T03:14:21.705Z,49.30
2018-08-13T03:16:49.990Z,49.30
2018-08-13T03:19:18.184Z,49.30
2018-08-13T03:21:46.390Z,49.40
2018-08-13T03:24:14.605Z,49.50
2018-08-13T03:26:42.843Z,49.50
2018-08-13T03:29:11.109Z,49.50
2018-08-13T03:31:39.332Z,49.50
2018-08-13T03:34:07.604Z,49.50
2018-08-13T03:36:35.860Z,49.50
2018-08-13T03:39:08.286Z,49.70
2018-08-13T03:41:36.489Z,49.90
2018-08-13T03:44:04.737Z,50.00
2018-08-13T03:46:32.923Z,50.10
2018-08-13T03:49:01.163Z,50.30
2018-08-13T03:51:29.352Z,50.40
2018-08-13T03:53:58.184Z,50.30
2018-08-13T03:56:26.371Z,50.30
2018-08-13T03:58:54.598Z,50.40
2018-08-13T04:01:22.856Z,50.40
2018-08-13T04:03:51.055Z,50.50
2018-08-13T04:06:19.285Z,50.50
2018-08-13T04:08:47.492Z,50.60
2018-08-13T04:11:15.673Z,50.70
2018-08-13T04:13:43.904Z,50.70
2018-08-13T04:16:12.136Z,50.70
2018-08-13T04:18:40.330Z,50.60
2018-08-13T04:21:08.525Z,50.70
2018-08-13T04:23:36.758Z,50.70
2018-08-13T04:26:04.981Z,51.20
2018-08-13T04:28:33.195Z,50.70
2018-08-13T04:31:01.395Z,50.70
2018-08-13T04:33:29.563Z,50.70
2018-08-13T04:35:57.777Z,50.70
2018-08-13T04:38:25.971Z,50.70
2018-08-13T04:40:54.191Z,50.80
2018-08-13T04:43:22.374Z,50.90
2018-08-13T04:45:50.664Z,50.70
2018-08-13T04:48:18.840Z,50.70
2018-08-13T04:50:47.057Z,50.60
2018-08-13T04:53:15.341Z,50.70
2018-08-13T04:55:43.547Z,50.80
2018-08-13T04:58:11.789Z,50.90
2018-08-13T05:00:39.997Z,51.00
2018-08-13T05:03:08.226Z,50.90
2018-08-13T05:05:36.517Z,51.00
2018-08-13T05:08:04.733Z,51.10
2018-08-13T05:10:32.992Z,51.10
2018-08-13T05:13:01.217Z,51.00
2018-08-13T05:15:29.419Z,50.90
2018-08-13T05:17:57.775Z,50.70
2018-08-13T05:20:26.123Z,50.70
2018-08-13T05:22:54.387Z,50.50
2018-08-13T05:25:22.611Z,50.40
2018-08-13T05:27:50.849Z,50.10
2018-08-13T05:30:19.107Z,50.20
2018-08-13T05:32:47.288Z,49.90
2018-08-13T05:35:15.512Z,49.70
2018-08-13T05:37:43.789Z,49.60
2018-08-13T05:40:11.985Z,49.40
2018-08-13T05:42:40.535Z,49.10
2018-08-13T05:45:09.473Z,48.90
2018-08-13T05:47:37.670Z,48.80
2018-08-13T05:50:07.577Z,48.60
2018-08-13T05:52:35.792Z,48.50
2018-08-13T05:55:04.488Z,48.40
2018-08-13T05:57:32.711Z,48.30
2018-08-13T06:00:01.084Z,48.30
2018-08-13T06:02:29.308Z,48.20
2018-08-13T06:04:57.520Z,48.10
2018-08-13T06:07:25.704Z,48.20
2018-08-13T06:09:53.927Z,48.10
2018-08-13T06:12:22.126Z,47.90
2018-08-13T06:14:50.421Z,47.60
2018-08-13T06:17:18.648Z,47.40
2018-08-13T06:19:46.849Z,47.10
2018-08-13T06:22:15.090Z,46.90
2018-08-13T06:24:43.293Z,46.80
2018-08-13T06:27:11.536Z,46.60
2018-08-13T06:29:39.783Z,46.40
2018-08-13T06:32:08.012Z,46.30
2018-08-13T06:34:36.224Z,46.20
2018-08-13T06:37:04.451Z,46.20
2018-08-13T06:39:32.720Z,46.10
2018-08-13T06:42:00.947Z,46.00
2018-08-13T06:44:29.172Z,46.00
2018-08-13T06:46:57.454Z,46.00
2018-08-13T06:49:25.829Z,46.00
2018-08-13T06:51:54.123Z,46.10
2018-08-13T06:54:22.457Z,46.20
2018-08-13T06:56:50.727Z,46.30
2018-08-13T06:59:19.018Z,46.30
2018-08-13T07:01:47.305Z,46.20
2018-08-13T07:04:15.577Z,46.00
2018-08-13T07:06:43.892Z,46.10
2018-08-13T07:09:12.471Z,46.10
2018-08-13T07:11:41.005Z,46.20
2018-08-13T07:14:09.386Z,46.20
2018-08-13T07:16:37.714Z,46.40
2018-08-13T07:19:06.573Z,46.70
2018-08-13T07:21:34.873Z,47.10
2018-08-13T07:24:03.137Z,47.50
2018-08-13T07:26:31.441Z,47.60
2018-08-13T07:28:59.653Z,47.80
2018-08-13T07:31:27.879Z,47.80
2018-08-13T07:33:56.183Z,48.00
2018-08-13T07:36:24.423Z,48.10
2018-08-13T07:38:52.950Z,48.20
2018-08-13T07:41:21.171Z,48.30
2018-08-13T07:43:49.452Z,48.30
2018-08-13T07:46:17.696Z,48.20
2018-08-13T07:48:46.111Z,48.20
2018-08-13T07:51:14.388Z,48.30
2018-08-13T07:53:42.591Z,48.60
2018-08-13T07:56:10.807Z,48.70
2018-08-13T07:58:39.112Z,48.90
2018-08-13T08:01:07.449Z,48.90
2018-08-13T08:03:35.688Z,48.90
2018-08-13T08:06:03.975Z,49.10
2018-08-13T08:08:32.235Z,49.10
2018-08-13T08:11:00.431Z,48.80
2018-08-13T08:13:28.709Z,48.60
2018-08-13T08:15:56.965Z,48.50
2018-08-13T08:18:25.288Z,48.40
2018-08-13T08:20:53.752Z,48.20
2018-08-13T08:23:22.125Z,48.10
2018-08-13T08:25:50.479Z,48.00
2018-08-13T08:28:18.839Z,48.10
2018-08-13T08:30:47.134Z,48.20
2018-08-13T08:33:15.344Z,48.30
2018-08-13T08:35:43.621Z,48.10
2018-08-13T08:38:11.808Z,47.90
2018-08-13T08:40:40.138Z,47.50
2018-08-13T08:43:09.840Z,46.90
2018-08-13T08:45:38.095Z,46.40
2018-08-13T08:48:08.150Z,46.10
2018-08-13T08:50:36.700Z,45.90
2018-08-13T08:53:05.319Z,45.70
2018-08-13T08:55:33.589Z,45.80
2018-08-13T08:58:01.842Z,46.10
2018-08-13T09:00:30.143Z,46.60
2018-08-13T09:02:58.424Z,47.20
2018-08-13T09:05:26.744Z,47.70
2018-08-13T09:07:54.998Z,48.30
2018-08-13T09:10:23.537Z,48.70
2018-08-13T09:12:51.921Z,49.10
2018-08-13T09:15:20.285Z,49.50
2018-08-13T09:18:00.312Z,49.60
2018-08-13T09:20:39.821Z,50.00
2018-08-13T09:23:19.424Z,50.20
2018-08-13T09:25:58.955Z,50.50
2018-08-13T09:28:38.541Z,50.70
2018-08-13T09:31:23.911Z,51.10
2018-08-13T09:34:03.607Z,51.10
2018-08-13T09:36:32.080Z,51.20
2018-08-13T09:39:00.398Z,51.40
2018-08-13T09:41:28.639Z,51.70
2018-08-13T09:43:56.959Z,51.90
2018-08-13T09:46:25.375Z,52.20
2018-08-13T09:48:54.287Z,52.40
2018-08-13T09:51:22.699Z,52.80
2018-08-13T09:53:51.007Z,53.50
2018-08-13T09:56:19.187Z,54.00
2018-08-13T09:58:47.368Z,54.40
2018-08-13T10:01:15.700Z,54.80
2018-08-13T10:03:43.891Z,54.90
2018-08-13T10:06:12.109Z,55.30
2018-08-13T10:08:40.387Z,55.50
2018-08-13T10:11:08.673Z,55.90
2018-08-13T10:13:37.025Z,56.20
2018-08-13T10:16:05.528Z,56.50
2018-08-13T10:18:33.784Z,56.80
2018-08-13T10:21:01.991Z,57.10
2018-08-13T10:23:30.328Z,57.40
2018-08-13T10:25:58.562Z,57.60
2018-08-13T10:28:26.772Z,57.80
2018-08-13T10:30:55.010Z,58.00
2018-08-13T10:33:23.228Z,58.00
2018-08-13T10:35:51.485Z,58.00
2018-08-13T10:38:19.697Z,58.10
2018-08-13T10:40:47.901Z,58.20
2018-08-13T10:43:16.100Z,58.70
2018-08-13T10:45:44.311Z,58.20
2018-08-13T10:48:12.515Z,58.30
2018-08-13T10:50:40.703Z,58.20
2018-08-13T10:53:08.945Z,58.10
2018-08-13T10:55:37.358Z,58.10
2018-08-13T10:58:06.395Z,58.00
2018-08-13T11:00:34.682Z,57.90
2018-08-13T11:03:03.154Z,57.90
2018-08-13T11:05:31.447Z,58.10
2018-08-13T11:07:59.734Z,58.00
2018-08-13T11:10:28.129Z,58.00
2018-08-13T11:12:56.359Z,58.10
2018-08-13T11:15:24.802Z,58.00
2018-08-13T11:17:53.009Z,58.00
2018-08-13T11:20:21.473Z,57.90
2018-08-13T11:22:49.806Z,57.80
2018-08-13T11:25:18.148Z,57.60
2018-08-13T11:27:46.320Z,57.50
2018-08-13T11:30:16.326Z,57.50
2018-08-13T11:32:44.552Z,57.40
2018-08-13T11:35:13.623Z,57.20
2018-08-13T11:37:41.893Z,57.00
2018-08-13T11:40:16.236Z,56.80
2018-08-13T11:42:44.518Z,56.50
2018-08-13T11:45:12.819Z,56.30
2018-08-13T11:47:41.409Z,56.10
2018-08-13T11:50:14.388Z,56.00
2018-08-13T11:52:43.677Z,55.90
2018-08-13T11:55:11.942Z,56.00
2018-08-13T11:57:40.123Z,56.00
2018-08-13T12:00:10.143Z,56.20
2018-08-13T12:02:38.477Z,56.30
2018-08-13T12:05:08.931Z,56.50
2018-08-13T12:07:37.139Z,56.50
2018-08-13T12:10:06.393Z,56.70
2018-08-13T12:12:34.649Z,56.70
2018-08-13T12:15:03.394Z,56.70
2018-08-13T12:17:31.760Z,56.70
2018-08-13T12:20:00.232Z,56.80
2018-08-13T12:22:28.819Z,56.80
2018-08-13T12:24:57.215Z,57.00
2018-08-13T12:27:25.728Z,57.00
2018-08-13T12:29:54.145Z,57.10
2018-08-13T12:32:22.484Z,57.10
2018-08-13T12:34:50.961Z,57.00
2018-08-13T12:37:19.403Z,57.10
2018-08-13T12:39:47.668Z,57.00
2018-08-13T12:42:16.166Z,57.10
2018-08-13T12:44:44.755Z,57.30
2018-08-13T12:47:13.108Z,57.40
2018-08-13T12:49:41.316Z,57.60
2018-08-13T12:52:09.574Z,57.90
2018-08-13T12:54:37.760Z,58.10
2018-08-13T12:57:06.038Z,58.40
2018-08-13T12:59:34.195Z,58.40
2018-08-13T13:02:02.568Z,58.50
2018-08-13T13:04:31.415Z,58.60
2018-08-13T13:06:59.717Z,58.60
2018-08-13T13:09:35.353Z,58.60
2018-08-13T13:12:03.616Z,58.70
2018-08-13T13:14:31.822Z,58.70
2018-08-13T13:17:00.063Z,58.90
2018-08-13T13:19:28.251Z,59.00
2018-08-13T13:21:56.484Z,59.10
2018-08-13T13:24:25.694Z,59.40
2018-08-13T13:26:53.973Z,59.60
2018-08-13T13:29:22.188Z,59.60
2018-08-13T13:31:50.498Z,59.70
2018-08-13T13:34:18.755Z,59.80
2018-08-13T13:36:46.991Z,59.90
2018-08-13T13:39:15.266Z,59.90
2018-08-13T13:41:43.453Z,59.80
2018-08-13T13:44:11.923Z,59.70
2018-08-13T13:46:40.190Z,59.70
2018-08-13T13:49:08.485Z,59.70
2018-08-13T13:51:36.741Z,59.60
2018-08-13T13:54:05.292Z,59.50
2018-08-13T13:56:33.486Z,59.20
2018-08-13T13:59:01.695Z,58.90
2018-08-13T14:01:29.972Z,58.90
2018-08-13T14:03:58.211Z,58.70
2018-08-13T14:06:26.729Z,58.60
2018-08-13T14:08:54.945Z,58.50
2018-08-13T14:11:23.140Z,58.20
2018-08-13T14:13:51.399Z,57.80
2018-08-13T14:16:19.832Z,57.60
2018-08-13T14:18:48.030Z,57.50
2018-08-13T14:21:16.252Z,57.50
2018-08-13T14:23:44.524Z,57.60
2018-08-13T14:26:12.774Z,57.50
2018-08-13T14:28:40.989Z,57.30
2018-08-13T14:31:09.237Z,57.40
2018-08-13T14:33:37.428Z,57.30
2018-08-13T14:36:05.905Z,57.40
2018-08-13T14:38:34.097Z,57.50
2018-08-13T14:41:02.303Z,57.50
2018-08-13T14:43:30.543Z,57.70
2018-08-13T14:45:58.821Z,57.70
2018-08-13T14:48:27.021Z,57.80
2018-08-13T14:50:55.361Z,57.70
2018-08-13T14:53:23.549Z,57.60
2018-08-13T14:55:51.732Z,57.40
2018-08-13T14:58:19.962Z,57.10
2018-08-13T15:00:48.160Z,56.80
2018-08-13T15:03:16.369Z,56.50
2018-08-13T15:05:44.570Z,56.30
2018-08-13T15:08:12.786Z,56.30
2018-08-13T15:10:41.059Z,56.00
2018-08-13T15:13:09.305Z,55.90
2018-08-13T15:15:37.516Z,55.90
2018-08-13T15:18:06.408Z,55.80
2018-08-13T15:20:34.613Z,55.60
2018-08-13T15:23:02.863Z,55.70
2018-08-13T15:25:31.088Z,55.50
2018-08-13T15:27:59.317Z,55.60
2018-08-13T15:30:27.756Z,55.70
2018-08-13T15:32:56.177Z,55.70
2018-08-13T15:35:24.491Z,55.70
2018-08-13T15:37:53.450Z,55.70
2018-08-13T15:40:21.901Z,55.50
2018-08-13T15:42:50.142Z,55.40
2018-08-13T15:45:20.988Z,55.20
2018-08-13T15:47:49.524Z,55.20
2018-08-13T15:50:18.938Z,55.20
2018-08-13T15:52:47.509Z,55.30
2018-08-13T15:55:15.895Z,55.20
2018-08-13T15:57:44.654Z,55.00
2018-08-13T16:00:16.147Z,54.90
2018-08-13T16:02:44.429Z,54.90
2018-08-13T16:05:12.681Z,54.60
2018-08-13T16:07:40.908Z,54.50
2018-08-13T16:10:10.972Z,54.50
2018-08-13T16:12:39.180Z,54.50
2018-08-13T16:15:07.862Z,54.30
2018-08-13T16:17:36.781Z,54.20
2018-08-13T16:20:07.284Z,53.90
2018-08-13T16:22:35.471Z,53.80
2018-08-13T16:25:04.179Z,53.60
2018-08-13T16:27:32.367Z,53.50
2018-08-13T16:30:00.580Z,53.40
2018-08-13T16:32:28.795Z,53.20
2018-08-13T16:34:57.045Z,53.10
2018-08-13T16:37:25.228Z,53.00
2018-08-13T16:39:53.483Z,53.00
2018-08-13T16:42:21.816Z,52.80
2018-08-13T16:44:50.016Z,52.80
2018-08-13T16:47:18.236Z,52.60
2018-08-13T16:49:46.453Z,52.60
2018-08-13T16:52:14.649Z,52.70
2018-08-13T16:54:42.867Z,52.70
2018-08-13T16:57:11.057Z,52.80
2018-08-13T16:59:39.291Z,52.80
2018-08-13T17:02:07.492Z,52.80
2018-08-13T17:04:35.672Z,52.80
2018-08-13T17:07:03.832Z,52.70
2018-08-13T17:09:32.102Z,52.80
2018-08-13T17:12:00.656Z,52.80
2018-08-13T17:14:29.116Z,52.70
2018-08-13T17:16:57.256Z,52.80
2018-08-13T17:19:25.472Z,52.90
2018-08-13T17:21:54.358Z,53.00
2018-08-13T17:24:22.549Z,53.40
2018-08-13T17:26:50.800Z,54.10
2018-08-13T17:29:19.046Z,54.60
2018-08-13T17:31:47.243Z,55.20
2018-08-13T17:34:15.584Z,55.70
2018-08-13T17:36:43.768Z,56.60
2018-08-13T17:39:13.972Z,57.70
2018-08-13T17:41:42.196Z,58.40
2018-08-13T17:44:10.470Z,59.50
2018-08-13T17:46:39.459Z,59.40
2018-08-13T17:49:08.096Z,59.70
2018-08-13T17:51:36.428Z,60.10
2018-08-13T17:54:04.680Z,60.50
2018-08-13T17:56:32.941Z,60.60
2018-08-13T17:59:01.147Z,61.00
2018-08-13T18:01:29.349Z,61.00
2018-08-13T18:03:57.669Z,61.20
2018-08-13T18:06:25.896Z,61.50
2018-08-13T18:08:54.251Z,61.90
2018-08-13T18:11:22.502Z,62.10
2018-08-13T18:13:50.707Z,62.10
2018-08-13T18:16:18.909Z,62.20
2018-08-13T18:18:47.092Z,62.20
2018-08-13T18:21:15.463Z,62.20
2018-08-13T18:23:43.702Z,62.80
2018-08-13T18:26:11.885Z,62.20
2018-08-13T18:28:40.086Z,62.10
2018-08-13T18:31:08.737Z,62.30
2018-08-13T18:33:36.961Z,62.70
2018-08-13T18:36:05.263Z,62.90
2018-08-13T18:38:33.472Z,62.80
2018-08-13T18:41:01.671Z,62.90
2018-08-13T18:43:29.882Z,63.10
2018-08-13T18:45:58.096Z,63.50
2018-08-13T18:48:26.333Z,63.80
2018-08-13T18:50:54.552Z,64.00
2018-08-13T18:53:22.764Z,64.10
2018-08-13T18:55:50.976Z,64.30
2018-08-13T18:58:19.179Z,64.30
2018-08-13T19:00:51.606Z,64.40
2018-08-13T19:03:19.852Z,64.60
2018-08-13T19:05:48.116Z,64.50
2018-08-13T19:08:16.381Z,64.70
2018-08-13T19:10:44.588Z,65.00
2018-08-13T19:13:12.812Z,65.00
2018-08-13T19:15:41.065Z,65.20
2018-08-13T19:18:09.379Z,65.50
2018-08-13T19:20:37.609Z,65.70
2018-08-13T19:23:06.360Z,65.80
2018-08-13T19:25:34.580Z,65.90
2018-08-13T19:28:02.839Z,66.20
2018-08-13T19:30:31.036Z,66.30
2018-08-13T19:32:59.275Z,66.50
2018-08-13T19:35:27.502Z,66.60
2018-08-13T19:37:55.765Z,66.80
2018-08-13T19:40:25.224Z,66.80
2018-08-13T19:42:53.444Z,66.90
2018-08-13T19:45:22.323Z,67.10
2018-08-13T19:47:50.977Z,67.50
2018-08-13T19:50:19.223Z,67.90
2018-08-13T19:52:48.619Z,68.20
2018-08-13T19:55:17.169Z,68.40
2018-08-13T19:57:45.378Z,68.60
2018-08-13T20:00:17.580Z,68.80
2018-08-13T20:02:46.060Z,69.10
2018-08-13T20:05:14.268Z,69.20
2018-08-13T20:07:42.468Z,69.40
2018-08-13T20:10:12.451Z,69.50
2018-08-13T20:12:40.734Z,69.60
2018-08-13T20:15:09.288Z,69.70
2018-08-13T20:17:37.603Z,69.90
2018-08-13T20:20:08.492Z,69.90
2018-08-13T20:22:36.710Z,70.10
2018-08-13T20:25:05.558Z,70.30
2018-08-13T20:27:33.895Z,70.50
2018-08-13T20:30:02.185Z,70.80
2018-08-13T20:32:30.372Z,70.70
2018-08-13T20:34:58.576Z,70.90
2018-08-13T20:37:26.779Z,71.10
2018-08-13T20:39:54.993Z,71.30
2018-08-13T20:42:23.204Z,71.30
2018-08-13T20:44:51.477Z,71.30
2018-08-13T20:47:19.780Z,71.10
2018-08-13T20:49:47.991Z,71.20
2018-08-13T20:52:16.188Z,71.20
2018-08-13T20:54:44.428Z,71.40
2018-08-13T20:57:12.647Z,71.50
2018-08-13T20:59:40.843Z,71.50
2018-08-13T21:02:09.049Z,71.70
2018-08-13T21:04:37.295Z,71.90
2018-08-13T21:07:05.928Z,72.00
2018-08-13T21:09:34.223Z,72.10
2018-08-13T21:12:02.477Z,72.30
2018-08-13T21:14:30.645Z,72.50
2018-08-13T21:16:58.882Z,72.40
2018-08-13T21:19:27.131Z,72.50
2018-08-13T21:21:55.417Z,72.60
2018-08-13T21:24:23.661Z,72.60
2018-08-13T21:26:51.877Z,72.60
2018-08-13T21:29:20.233Z,73.20
2018-08-13T21:31:48.432Z,72.60
2018-08-13T21:34:16.709Z,72.60
2018-08-13T21:36:44.968Z,72.80
2018-08-13T21:39:13.187Z,73.20
2018-08-13T21:41:41.716Z,73.90
2018-08-13T21:44:09.956Z,73.20
2018-08-13T21:46:38.137Z,73.30
2018-08-13T21:49:06.425Z,73.10
2018-08-13T21:51:34.646Z,73.10
2018-08-13T21:54:02.879Z,73.30
2018-08-13T21:56:31.072Z,73.40
2018-08-13T21:58:59.262Z,73.40
2018-08-13T22:01:32.752Z,73.30
2018-08-13T22:04:00.944Z,73.30
2018-08-13T22:06:29.193Z,73.30
2018-08-13T22:08:57.391Z,73.30
2018-08-13T22:11:25.613Z,73.40
2018-08-13T22:13:53.852Z,73.50
2018-08-13T22:16:22.052Z,73.50
2018-08-13T22:18:50.264Z,73.40
2018-08-13T22:21:18.481Z,73.50
2018-08-13T22:23:58.040Z,73.60
2018-08-13T22:26:26.367Z,73.60
2018-08-13T22:28:54.607Z,73.60
2018-08-13T22:31:22.788Z,73.60
2018-08-13T22:33:51.020Z,73.50
2018-08-13T22:36:19.234Z,73.60
2018-08-13T22:38:47.462Z,73.60
2018-08-13T22:41:15.704Z,73.60
2018-08-13T22:43:43.920Z,73.60
2018-08-13T22:46:12.107Z,73.60
2018-08-13T22:48:40.629Z,73.70
2018-08-13T22:51:08.833Z,73.70
2018-08-13T22:53:37.025Z,73.60
2018-08-13T22:56:05.204Z,73.60
2018-08-13T22:58:33.408Z,73.60
2018-08-13T23:01:01.623Z,73.70
2018-08-13T23:03:29.853Z,73.70
2018-08-13T23:05:58.052Z,73.70
2018-08-13T23:08:26.302Z,73.80
2018-08-13T23:10:54.452Z,74.10
2018-08-13T23:13:22.716Z,74.10
2018-08-13T23:15:50.945Z,74.10
2018-08-13T23:18:19.153Z,74.20
2018-08-13T23:20:47.353Z,74.20
2018-08-13T23:23:15.539Z,74.20
2018-08-13T23:25:43.795Z,74.30
2018-08-13T23:28:12.092Z,74.30
2018-08-13T23:30:40.291Z,74.40
2018-08-13T23:33:08.569Z,74.40
2018-08-13T23:35:36.765Z,74.20
2018-08-13T23:38:05.195Z,74.30
2018-08-13T23:40:33.458Z,74.30
2018-08-13T23:43:01.661Z,74.20
2018-08-13T23:45:31.205Z,74.30
2018-08-13T23:47:59.383Z,74.50
2018-08-13T23:50:28.133Z,75.30
2018-08-13T23:52:57.683Z,74.70
2018-08-13T23:55:29.375Z,74.60
2018-08-13T23:57:57.930Z,74.60
